Time;durP1;ratioP1;P1;durP2;ratioP2;P2;SDS_P1;SDS_P2;PMS_P1;PMS_P2;Temp;Humidity;BMP_temperature;BMP_pressure;BME280_temperature;BME280_humidity;BME280_pressure;Samples;Min_cycle;Max_cycle;Signal;HPM_P1;HPM_P2
2022/12/14 06:00:26;;;;;;;21.03;18.70;;;1.70;97.20;;;;;;1727043;28;20195;-75
2022/12/14 06:01:17;;;;;;;22.33;18.45;;;1.70;97.20;;;;;;1726676;28;20208;-77
2022/12/14 06:02:09;;;;;;;23.27;19.50;;;1.80;97.20;;;;;;1727223;28;20256;-75
2022/12/14 06:02:59;;;;;;;21.25;18.27;;;1.80;97.20;;;;;;1722140;28;20448;-75
2022/12/14 06:03:52;;;;;;;20.67;18.57;;;1.80;97.20;;;;;;1720813;28;20201;-75
2022/12/14 06:04:43;;;;;;;20.92;18.80;;;1.80;97.20;;;;;;1720536;28;20209;-75
2022/12/14 06:05:34;;;;;;;20.43;18.23;;;1.80;97.20;;;;;;1720411;28;20200;-75
2022/12/14 06:06:25;;;;;;;21.02;18.50;;;1.80;97.20;;;;;;1720646;28;20686;-75
2022/12/14 06:07:17;;;;;;;21.03;18.83;;;1.80;97.20;;;;;;1720506;28;20576;-75
2022/12/14 06:08:08;;;;;;;21.30;19.10;;;1.80;97.20;;;;;;1720634;28;20201;-75
2022/12/14 06:09:00;;;;;;;21.80;19.30;;;1.80;97.20;;;;;;1720665;28;20233;-75
2022/12/14 06:09:51;;;;;;;22.27;18.45;;;1.80;97.20;;;;;;1720659;28;20217;-75
2022/12/14 06:10:42;;;;;;;21.98;19.63;;;1.80;97.20;;;;;;1720622;28;20313;-76
2022/12/14 06:11:37;;;;;;;21.93;19.43;;;1.80;97.20;;;;;;1722969;28;20675;-75
2022/12/14 06:12:28;;;;;;;23.98;18.92;;;1.80;97.20;;;;;;1727394;28;20213;-75
2022/12/14 06:13:19;;;;;;;22.00;19.37;;;1.80;97.20;;;;;;1727542;28;20200;-75
2022/12/14 06:14:11;;;;;;;22.02;19.00;;;1.90;97.20;;;;;;1727320;28;20220;-75
2022/12/14 06:15:03;;;;;;;22.70;20.35;;;1.90;97.20;;;;;;1727340;28;20310;-75
2022/12/14 06:16:06;;;;;;;22.13;19.75;;;1.90;97.20;;;;;;1727347;28;20208;-75
2022/12/14 06:16:57;;;;;;;19.90;17.80;;;1.90;97.20;;;;;;1727417;28;20665;-74
2022/12/14 06:17:49;;;;;;;24.00;19.40;;;1.90;97.20;;;;;;1727639;28;20200;-74
2022/12/14 06:18:42;;;;;;;21.77;19.42;;;1.90;97.20;;;;;;1727562;28;20209;-73
2022/12/14 06:19:33;;;;;;;21.77;19.48;;;1.90;97.20;;;;;;1727612;28;20208;-74
2022/12/14 06:20:26;;;;;;;22.10;19.73;;;1.90;97.20;;;;;;1726824;28;20222;-74
2022/12/14 06:21:19;;;;;;;19.95;17.95;;;1.90;97.20;;;;;;1726754;28;20208;-74
2022/12/14 06:22:11;;;;;;;22.13;18.95;;;1.90;97.20;;;;;;1720667;28;20201;-73
2022/12/14 06:23:01;;;;;;;22.50;19.38;;;1.90;97.20;;;;;;1720737;28;20205;-74
2022/12/14 06:23:55;;;;;;;22.27;19.20;;;1.90;97.20;;;;;;1720871;28;20681;-74
2022/12/14 06:24:45;;;;;;;20.73;18.33;;;1.90;97.20;;;;;;1720658;28;20209;-74
2022/12/14 06:25:37;;;;;;;22.27;19.97;;;1.90;97.20;;;;;;1720773;28;20208;-74
2022/12/14 06:26:29;;;;;;;21.92;19.38;;;1.90;97.20;;;;;;1720781;28;20211;-74
2022/12/14 06:27:21;;;;;;;21.90;19.60;;;1.90;97.20;;;;;;1720602;28;20208;-73
2022/12/14 06:28:12;;;;;;;24.40;20.13;;;1.90;97.20;;;;;;1720664;28;20197;-74
2022/12/14 06:29:04;;;;;;;23.20;20.23;;;1.90;97.20;;;;;;1720683;28;20211;-74
2022/12/14 06:29:55;;;;;;;24.17;19.30;;;1.90;97.20;;;;;;1720283;28;20201;-74
2022/12/14 06:30:47;;;;;;;21.90;19.53;;;1.90;97.20;;;;;;1720532;28;20714;-75
2022/12/14 06:31:39;;;;;;;21.38;18.90;;;1.90;97.20;;;;;;1723331;28;20200;-75
2022/12/14 06:32:31;;;;;;;20.45;18.42;;;1.90;97.20;;;;;;1727502;28;20208;-75
2022/12/14 06:33:22;;;;;;;26.15;20.17;;;1.90;97.20;;;;;;1727507;28;20582;-75
2022/12/14 06:34:14;;;;;;;22.70;19.63;;;1.90;97.20;;;;;;1727536;28;20259;-75
2022/12/14 06:35:06;;;;;;;21.50;19.15;;;1.90;97.20;;;;;;1727444;28;20208;-75
2022/12/14 06:35:58;;;;;;;22.65;20.25;;;1.90;97.20;;;;;;1727471;28;20200;-75
2022/12/14 06:36:48;;;;;;;23.50;21.00;;;1.90;97.20;;;;;;1727164;28;20201;-75
2022/12/14 06:37:40;;;;;;;21.80;19.40;;;1.90;97.20;;;;;;1727389;28;20207;-75
2022/12/14 06:38:31;;;;;;;22.73;20.35;;;1.90;97.20;;;;;;1727276;28;20208;-75
2022/12/14 06:39:22;;;;;;;22.00;19.57;;;1.90;97.20;;;;;;1727301;28;20200;-75
2022/12/14 06:40:13;;;;;;;22.65;19.23;;;2.00;97.20;;;;;;1726942;28;20200;-75
2022/12/14 06:41:08;;;;;;;22.90;20.27;;;2.00;97.20;;;;;;1727372;28;20200;-75
2022/12/14 06:41:58;;;;;;;23.23;20.52;;;2.00;97.20;;;;;;1722409;28;20247;-76
2022/12/14 06:42:50;;;;;;;24.20;18.83;;;1.90;97.20;;;;;;1727320;28;20247;-75
2022/12/14 06:43:41;;;;;;;26.45;20.77;;;2.00;97.20;;;;;;1723692;28;20208;-75
2022/12/14 06:44:33;;;;;;;22.90;20.15;;;2.00;97.20;;;;;;1720658;28;20203;-76
2022/12/14 06:45:24;;;;;;;29.95;19.80;;;2.00;97.20;;;;;;1720707;28;20583;-76
2022/12/14 06:46:17;;;;;;;23.60;19.30;;;2.00;97.20;;;;;;1720690;28;20549;-76
2022/12/14 06:47:09;;;;;;;22.48;19.58;;;2.00;97.20;;;;;;1720365;28;20305;-76
2022/12/14 06:48:01;;;;;;;23.17;20.20;;;2.00;97.20;;;;;;1720603;28;20208;-76
2022/12/14 06:48:54;;;;;;;22.77;19.48;;;2.00;97.20;;;;;;1720655;28;20216;-75
2022/12/14 06:49:45;;;;;;;21.92;19.60;;;2.00;97.20;;;;;;1720461;28;20201;-76
2022/12/14 06:50:36;;;;;;;21.17;18.52;;;2.00;97.20;;;;;;1720047;28;20248;-76
2022/12/14 06:51:28;;;;;;;28.53;20.60;;;2.00;97.20;;;;;;1720858;28;20296;-75
2022/12/14 06:52:19;;;;;;;22.08;19.77;;;2.00;97.20;;;;;;1720197;28;20453;-76
2022/12/14 06:53:12;;;;;;;22.30;19.90;;;2.00;97.20;;;;;;1720566;28;20204;-76
2022/12/14 06:54:03;;;;;;;29.38;20.45;;;2.00;97.20;;;;;;1720570;28;20211;-76
2022/12/14 06:54:55;;;;;;;24.07;21.47;;;2.00;97.20;;;;;;1720534;28;20204;-76
2022/12/14 06:55:45;;;;;;;23.25;20.30;;;2.00;97.20;;;;;;1722921;28;20456;-76
2022/12/14 06:56:39;;;;;;;22.00;19.67;;;2.00;97.20;;;;;;1726927;28;20331;-75
2022/12/14 06:57:31;;;;;;;21.55;19.15;;;2.00;97.20;;;;;;1727041;28;20204;-76
2022/12/14 06:58:22;;;;;;;22.45;19.95;;;2.00;97.20;;;;;;1726807;28;20213;-76
2022/12/14 06:59:14;;;;;;;23.35;20.70;;;2.00;97.20;;;;;;1727431;28;20582;-76
2022/12/14 07:00:11;;;;;;;22.45;19.92;;;2.00;97.20;;;;;;1726767;28;20258;-76
2022/12/14 07:01:02;;;;;;;21.38;19.02;;;2.00;97.20;;;;;;1727265;28;20262;-76
2022/12/14 07:01:54;;;;;;;26.70;21.67;;;2.00;97.20;;;;;;1725023;28;20279;-76
2022/12/14 07:02:46;;;;;;;26.35;21.13;;;2.00;97.20;;;;;;1727175;28;20205;-76
2022/12/14 07:03:39;;;;;;;25.15;20.80;;;2.00;97.20;;;;;;1725322;28;20230;-76
2022/12/14 07:04:30;;;;;;;22.98;20.67;;;2.00;97.20;;;;;;1720578;28;20205;-76
2022/12/14 07:05:21;;;;;;;22.23;19.93;;;2.00;97.20;;;;;;1720650;28;20204;-76
2022/12/14 07:06:12;;;;;;;22.50;20.10;;;2.00;97.20;;;;;;1720409;28;20456;-76
2022/12/14 07:07:05;;;;;;;22.20;19.90;;;2.00;97.20;;;;;;1720275;28;20203;-76
2022/12/14 07:07:55;;;;;;;24.48;21.85;;;2.00;97.20;;;;;;1720501;28;20201;-75
2022/12/14 07:08:48;;;;;;;22.30;19.93;;;2.10;97.20;;;;;;1720444;28;20312;-76
2022/12/14 07:09:39;;;;;;;24.55;21.38;;;2.10;97.20;;;;;;1720570;28;20212;-76
2022/12/14 07:10:31;;;;;;;21.47;18.60;;;2.10;97.20;;;;;;1719930;28;20224;-76
2022/12/14 07:11:22;;;;;;;23.58;20.83;;;2.10;97.20;;;;;;1720421;28;20585;-75
2022/12/14 07:12:14;;;;;;;24.10;20.00;;;2.10;97.20;;;;;;1726348;28;20193;-75
2022/12/14 07:13:05;;;;;;;24.45;19.88;;;2.10;97.20;;;;;;1727177;28;20212;-76
2022/12/14 07:13:59;;;;;;;28.13;20.97;;;2.10;97.20;;;;;;1727339;28;20258;-76
2022/12/14 07:14:50;;;;;;;26.45;21.33;;;2.10;97.20;;;;;;1727287;28;20247;-76
2022/12/14 07:15:41;;;;;;;31.90;21.10;;;2.10;97.20;;;;;;1727366;28;20208;-76
2022/12/14 07:16:34;;;;;;;23.60;20.52;;;2.10;97.20;;;;;;1727065;28;20221;-76
2022/12/14 07:17:26;;;;;;;25.20;21.70;;;2.10;97.20;;;;;;1727092;28;20211;-76
2022/12/14 07:18:19;;;;;;;26.20;22.67;;;2.10;97.20;;;;;;1727275;28;20201;-76
2022/12/14 07:19:11;;;;;;;27.45;21.25;;;2.00;97.20;;;;;;1727246;28;20243;-76
2022/12/14 07:20:03;;;;;;;27.52;21.67;;;2.00;97.20;;;;;;1726686;28;20220;-75
2022/12/14 07:20:56;;;;;;;23.70;21.15;;;2.00;97.20;;;;;;1727135;28;20238;-76
2022/12/14 07:21:50;;;;;;;23.75;21.13;;;2.00;97.20;;;;;;1724344;28;20201;-75
2022/12/14 07:22:41;;;;;;;23.85;21.35;;;2.00;97.20;;;;;;1725586;28;20200;-75
2022/12/14 07:23:36;;;;;;;22.77;20.37;;;2.00;97.20;;;;;;1727340;28;20208;-75
2022/12/14 07:24:26;;;;;;;23.75;21.20;;;2.00;97.20;;;;;;1727195;28;20211;-75
2022/12/14 07:25:18;;;;;;;24.00;21.40;;;2.00;97.20;;;;;;1727358;28;20200;-75
2022/12/14 07:26:11;;;;;;;23.73;20.55;;;1.90;97.20;;;;;;1727274;28;20204;-76
2022/12/14 07:27:02;;;;;;;24.20;21.70;;;2.00;97.20;;;;;;1727025;28;20291;-74
2022/12/14 07:27:53;;;;;;;23.13;20.73;;;2.00;97.20;;;;;;1727361;28;20198;-75
2022/12/14 07:28:46;;;;;;;23.43;21.00;;;2.00;97.20;;;;;;1727227;28;20214;-76
2022/12/14 07:29:36;;;;;;;23.08;20.60;;;2.00;97.20;;;;;;1727300;28;20474;-75
2022/12/14 07:30:28;;;;;;;25.63;21.60;;;2.00;97.20;;;;;;1726522;28;20208;-75
2022/12/14 07:31:22;;;;;;;23.90;21.48;;;2.00;97.20;;;;;;1727197;28;20189;-76
2022/12/14 07:32:13;;;;;;;25.70;22.52;;;2.00;97.20;;;;;;1721187;28;20239;-75
2022/12/14 07:33:04;;;;;;;27.95;23.15;;;2.00;97.20;;;;;;1720000;28;20758;-76
2022/12/14 07:33:58;;;;;;;24.43;21.90;;;2.00;97.20;;;;;;1720517;28;20580;-75
2022/12/14 07:34:49;;;;;;;24.20;21.63;;;1.90;97.20;;;;;;1720392;28;20212;-76
2022/12/14 07:35:41;;;;;;;27.43;23.67;;;1.90;97.20;;;;;;1720430;28;20766;-76
2022/12/14 07:36:32;;;;;;;25.25;22.02;;;1.90;97.20;;;;;;1720170;28;20254;-76
2022/12/14 07:37:24;;;;;;;24.48;21.92;;;1.80;97.20;;;;;;1720239;28;20205;-76
2022/12/14 07:38:14;;;;;;;24.90;22.20;;;1.80;97.20;;;;;;1720398;28;20208;-76
2022/12/14 07:39:06;;;;;;;23.80;21.23;;;1.80;97.20;;;;;;1719991;28;20299;-76
2022/12/14 07:39:57;;;;;;;23.35;20.80;;;1.80;97.20;;;;;;1719427;28;20212;-76
2022/12/14 07:40:49;;;;;;;26.23;21.73;;;1.80;97.20;;;;;;1720282;28;20631;-76
2022/12/14 07:41:40;;;;;;;25.17;22.23;;;1.80;97.20;;;;;;1720928;28;20679;-76
2022/12/14 07:42:32;;;;;;;25.63;22.03;;;1.80;97.20;;;;;;1726759;28;20667;-76
2022/12/14 07:43:23;;;;;;;25.13;22.48;;;1.80;97.20;;;;;;1720925;28;20464;-76
2022/12/14 07:44:14;;;;;;;26.67;21.20;;;1.80;97.20;;;;;;1720402;28;20693;-76
2022/12/14 07:45:06;;;;;;;25.38;22.70;;;1.80;97.20;;;;;;1720247;28;20452;-76
2022/12/14 07:46:01;;;;;;;25.77;23.00;;;1.80;97.20;;;;;;1719821;28;20236;-76
2022/12/14 07:46:52;;;;;;;26.85;22.13;;;1.80;97.20;;;;;;1719904;28;20219;-76
2022/12/14 07:47:44;;;;;;;27.17;22.80;;;1.90;97.20;;;;;;1720349;28;20208;-76
2022/12/14 07:48:36;;;;;;;27.60;23.15;;;1.90;97.20;;;;;;1720463;28;20449;-76
2022/12/14 07:49:29;;;;;;;27.58;22.13;;;1.90;97.20;;;;;;1720398;28;20575;-76
2022/12/14 07:50:19;;;;;;;28.15;21.52;;;1.90;97.20;;;;;;1720901;28;20213;-76
2022/12/14 07:51:13;;;;;;;24.97;22.30;;;1.90;97.20;;;;;;1720233;28;20651;-76
2022/12/14 07:52:04;;;;;;;29.13;23.95;;;1.90;97.20;;;;;;1720363;28;20205;-76
2022/12/14 07:52:56;;;;;;;24.90;21.63;;;1.90;97.20;;;;;;1720419;28;20201;-75
2022/12/14 07:53:48;;;;;;;27.85;22.30;;;1.90;97.20;;;;;;1720258;28;20198;-76
2022/12/14 07:54:39;;;;;;;30.17;22.67;;;1.90;97.20;;;;;;1720319;28;20213;-75
2022/12/14 07:55:34;;;;;;;26.33;22.92;;;1.80;97.20;;;;;;1720280;28;20205;-75
2022/12/14 07:56:27;;;;;;;27.73;22.77;;;1.80;97.20;;;;;;1720185;28;20209;-76
2022/12/14 07:57:19;;;;;;;26.48;23.42;;;1.80;97.20;;;;;;1720161;28;20213;-76
2022/12/14 07:58:09;;;;;;;27.02;22.60;;;1.90;97.20;;;;;;1720324;28;20212;-75
2022/12/14 07:59:05;;;;;;;25.03;22.23;;;1.90;97.20;;;;;;1720296;28;20487;-75
2022/12/14 07:59:56;;;;;;;26.08;22.08;;;1.90;97.20;;;;;;1719827;28;20209;-76
2022/12/14 08:00:48;;;;;;;24.10;21.50;;;1.90;97.20;;;;;;1725706;28;20220;-76
2022/12/14 08:01:39;;;;;;;29.05;21.75;;;1.90;97.20;;;;;;1726936;28;20216;-76
2022/12/14 08:02:31;;;;;;;26.02;22.55;;;1.90;97.20;;;;;;1727059;28;20194;-76
2022/12/14 08:03:22;;;;;;;25.75;22.98;;;1.90;97.20;;;;;;1727051;28;20669;-76
2022/12/14 08:04:17;;;;;;;28.27;22.90;;;1.90;97.20;;;;;;1727199;28;20204;-76
2022/12/14 08:05:09;;;;;;;27.50;21.77;;;2.00;97.20;;;;;;1727039;28;20243;-76
2022/12/14 08:06:04;;;;;;;27.50;23.90;;;1.90;97.20;;;;;;1726989;28;20204;-76
2022/12/14 08:06:56;;;;;;;28.65;22.58;;;2.00;97.20;;;;;;1726821;28;20201;-76
2022/12/14 08:07:47;;;;;;;24.85;21.48;;;2.00;97.20;;;;;;1727026;28;20212;-76
2022/12/14 08:08:39;;;;;;;26.50;21.40;;;2.00;97.20;;;;;;1726423;28;20200;-76
2022/12/14 08:09:31;;;;;;;24.83;21.85;;;2.00;97.20;;;;;;1721817;28;20208;-75
2022/12/14 08:10:21;;;;;;;25.10;21.65;;;2.00;97.20;;;;;;1721015;28;20205;-76
2022/12/14 08:11:14;;;;;;;27.70;22.57;;;2.00;97.20;;;;;;1721546;28;20211;-76
2022/12/14 08:12:05;;;;;;;25.58;22.85;;;2.00;97.20;;;;;;1721604;28;20213;-76
2022/12/14 08:12:56;;;;;;;25.10;22.40;;;2.00;97.20;;;;;;1721648;28;20208;-76
2022/12/14 08:13:52;;;;;;;27.10;22.40;;;2.00;97.20;;;;;;1721471;28;20207;-76
2022/12/14 08:14:43;;;;;;;26.27;22.80;;;2.00;97.20;;;;;;1721533;28;20209;-75
2022/12/14 08:15:36;;;;;;;26.13;22.60;;;2.00;97.20;;;;;;1721598;28;20220;-76
2022/12/14 08:16:28;;;;;;;27.73;22.60;;;2.00;97.20;;;;;;1721522;28;20311;-76
2022/12/14 08:17:18;;;;;;;29.65;23.35;;;2.00;97.20;;;;;;1721437;28;20205;-76
2022/12/14 08:18:10;;;;;;;25.20;22.40;;;2.00;97.20;;;;;;1721541;28;20211;-76
2022/12/14 08:19:01;;;;;;;26.80;23.35;;;2.00;97.20;;;;;;1727767;28;20307;-77
2022/12/14 08:19:53;;;;;;;25.97;23.17;;;2.10;97.20;;;;;;1722301;28;20313;-76
2022/12/14 08:20:47;;;;;;;28.35;25.00;;;2.10;97.20;;;;;;1721758;28;20472;-75
2022/12/14 08:21:40;;;;;;;28.55;23.60;;;2.00;97.20;;;;;;1721774;28;20217;-76
2022/12/14 08:22:30;;;;;;;24.13;21.63;;;2.00;97.20;;;;;;1721887;28;20205;-75
2022/12/14 08:23:22;;;;;;;24.60;21.93;;;2.00;97.20;;;;;;1721752;28;20209;-76
2022/12/14 08:24:15;;;;;;;26.20;22.98;;;2.00;97.20;;;;;;1721882;28;20670;-76
2022/12/14 08:25:08;;;;;;;24.25;21.73;;;1.90;97.20;;;;;;1721753;28;20199;-76
2022/12/14 08:26:00;;;;;;;25.55;22.75;;;1.90;97.20;;;;;;1721680;28;20201;-76
2022/12/14 08:26:53;;;;;;;26.52;23.35;;;1.90;97.20;;;;;;1721451;28;20254;-76
2022/12/14 08:27:45;;;;;;;27.13;23.95;;;1.90;97.20;;;;;;1721537;28;20201;-76
2022/12/14 08:28:37;;;;;;;27.35;24.00;;;2.00;97.20;;;;;;1724538;28;20669;-76
2022/12/14 08:29:28;;;;;;;24.92;22.15;;;2.00;97.20;;;;;;1728332;28;20212;-75
2022/12/14 08:30:19;;;;;;;29.05;23.75;;;2.00;97.20;;;;;;1727537;28;20216;-76
2022/12/14 08:31:13;;;;;;;25.50;22.73;;;2.00;97.20;;;;;;1728312;28;20211;-75
2022/12/14 08:32:04;;;;;;;26.10;23.33;;;2.10;97.20;;;;;;1728281;28;20216;-76
2022/12/14 08:32:56;;;;;;;29.63;23.17;;;2.10;97.20;;;;;;1728161;28;20205;-76
2022/12/14 08:33:48;;;;;;;25.02;22.33;;;2.10;97.20;;;;;;1728101;28;20204;-76
2022/12/14 08:34:39;;;;;;;29.13;22.98;;;2.10;97.20;;;;;;1728162;28;20597;-76
2022/12/14 08:35:32;;;;;;;26.17;23.30;;;2.20;97.20;;;;;;1728213;28;20569;-76
2022/12/14 08:36:26;;;;;;;27.77;23.17;;;2.10;97.20;;;;;;1728214;28;20200;-75
2022/12/14 08:37:18;;;;;;;26.17;23.27;;;2.20;97.20;;;;;;1728005;28;20224;-76
2022/12/14 08:38:09;;;;;;;29.15;23.25;;;2.20;97.20;;;;;;1728163;28;20204;-76
2022/12/14 08:39:03;;;;;;;30.97;23.87;;;2.20;97.20;;;;;;1721751;28;20193;-76
2022/12/14 08:39:54;;;;;;;25.48;21.77;;;2.20;97.20;;;;;;1720812;28;20204;-76
2022/12/14 08:40:45;;;;;;;26.87;23.53;;;2.20;97.20;;;;;;1721273;28;20308;-76
2022/12/14 08:41:36;;;;;;;26.52;23.67;;;2.20;97.20;;;;;;1721250;28;20208;-76
2022/12/14 08:42:28;;;;;;;26.50;23.60;;;2.20;97.20;;;;;;1721314;28;20211;-75
2022/12/14 08:43:18;;;;;;;27.80;23.05;;;2.20;97.20;;;;;;1721513;28;20667;-76
2022/12/14 08:44:11;;;;;;;25.37;22.57;;;2.20;97.20;;;;;;1721456;28;20540;-76
2022/12/14 08:45:03;;;;;;;26.98;24.25;;;2.20;97.20;;;;;;1721414;28;20304;-76
2022/12/14 08:45:55;;;;;;;25.17;22.48;;;2.20;97.20;;;;;;1727545;28;20196;-75
2022/12/14 08:46:46;;;;;;;26.83;24.00;;;2.20;97.20;;;;;;1727823;28;20212;-76
2022/12/14 08:47:37;;;;;;;25.98;23.17;;;2.20;97.20;;;;;;1728250;28;20208;-76
2022/12/14 08:48:29;;;;;;;27.03;22.87;;;2.20;97.20;;;;;;1728080;28;20235;-76
2022/12/14 08:49:21;;;;;;;24.30;21.65;;;2.20;97.20;;;;;;1728018;28;20208;-76
2022/12/14 08:50:12;;;;;;;26.33;23.60;;;2.20;97.20;;;;;;1727551;28;20209;-76
2022/12/14 08:51:05;;;;;;;26.17;23.37;;;2.20;97.20;;;;;;1727988;28;20704;-76
2022/12/14 08:51:58;;;;;;;28.27;24.08;;;2.20;97.20;;;;;;1728018;28;20451;-76
2022/12/14 08:52:49;;;;;;;25.25;22.65;;;2.20;97.20;;;;;;1728044;28;20589;-76
2022/12/14 08:53:41;;;;;;;26.60;23.10;;;2.20;97.20;;;;;;1728125;28;20200;-76
2022/12/14 08:54:31;;;;;;;27.83;24.35;;;2.20;97.20;;;;;;1728130;28;20200;-75
2022/12/14 08:55:23;;;;;;;27.53;23.63;;;2.20;97.20;;;;;;1725644;28;20204;-75
2022/12/14 08:56:16;;;;;;;26.65;23.55;;;2.20;97.20;;;;;;1721351;28;20301;-76
2022/12/14 08:57:07;;;;;;;27.75;24.50;;;2.30;97.20;;;;;;1720801;28;20229;-76
2022/12/14 08:57:58;;;;;;;27.00;23.67;;;2.30;97.20;;;;;;1727911;28;20209;-76
2022/12/14 08:58:50;;;;;;;26.20;23.40;;;2.30;97.20;;;;;;1728060;28;20279;-76
2022/12/14 08:59:41;;;;;;;26.08;22.60;;;2.30;97.20;;;;;;1728015;28;20692;-76
2022/12/14 09:00:32;;;;;;;28.33;23.40;;;2.30;97.20;;;;;;1727460;28;20568;-76
2022/12/14 09:01:25;;;;;;;26.40;23.50;;;2.30;97.20;;;;;;1727933;28;20666;-76
2022/12/14 09:02:17;;;;;;;26.70;24.00;;;2.30;97.20;;;;;;1728052;28;20196;-75
2022/12/14 09:03:07;;;;;;;30.67;24.10;;;2.40;97.20;;;;;;1727958;28;20562;-75
2022/12/14 09:04:03;;;;;;;27.40;24.40;;;2.40;97.20;;;;;;1728034;28;20576;-76
2022/12/14 09:04:54;;;;;;;27.05;23.75;;;2.40;97.20;;;;;;1728072;28;20666;-76
2022/12/14 09:05:46;;;;;;;29.63;25.10;;;2.40;97.20;;;;;;1722984;28;20798;-76
2022/12/14 09:06:39;;;;;;;26.90;24.02;;;2.40;97.20;;;;;;1721159;28;20205;-76
2022/12/14 09:07:31;;;;;;;27.92;24.45;;;2.40;97.20;;;;;;1721271;28;20201;-76
2022/12/14 09:08:23;;;;;;;28.45;24.40;;;2.50;97.20;;;;;;1721171;28;20220;-76
2022/12/14 09:09:14;;;;;;;27.75;24.75;;;2.50;97.20;;;;;;1721240;28;20212;-76
2022/12/14 09:10:07;;;;;;;27.33;24.20;;;2.50;97.20;;;;;;1720597;28;20197;-76
2022/12/14 09:10:58;;;;;;;31.48;26.20;;;2.50;97.20;;;;;;1721257;28;20278;-76
2022/12/14 09:11:50;;;;;;;28.85;25.70;;;2.50;97.20;;;;;;1721109;28;20200;-76
2022/12/14 09:12:40;;;;;;;33.92;26.35;;;2.60;97.20;;;;;;1721253;28;20213;-76
2022/12/14 09:13:33;;;;;;;39.03;28.43;;;2.60;97.20;;;;;;1721210;28;20704;-76
2022/12/14 09:14:24;;;;;;;36.70;28.98;;;2.60;97.20;;;;;;1721133;28;20483;-76
2022/12/14 09:15:16;;;;;;;37.07;28.20;;;2.60;97.20;;;;;;1721528;28;20205;-75
2022/12/14 09:16:10;;;;;;;30.15;26.85;;;2.60;97.20;;;;;;1724170;28;20667;-76
2022/12/14 09:17:02;;;;;;;28.00;24.58;;;2.70;97.20;;;;;;1720885;28;20212;-76
2022/12/14 09:17:54;;;;;;;29.92;25.77;;;2.70;97.20;;;;;;1721208;28;20205;-76
2022/12/14 09:18:45;;;;;;;30.25;26.70;;;2.70;97.20;;;;;;1721080;28;20213;-76
2022/12/14 09:19:37;;;;;;;27.45;24.58;;;2.70;97.20;;;;;;1720955;28;20728;-76
2022/12/14 09:20:28;;;;;;;29.05;25.48;;;2.70;97.20;;;;;;1720188;28;20201;-75
2022/12/14 09:21:19;;;;;;;32.27;26.00;;;2.70;97.20;;;;;;1721139;28;20205;-76
2022/12/14 09:22:12;;;;;;;30.85;27.48;;;2.70;97.20;;;;;;1721107;28;20228;-76
2022/12/14 09:23:05;;;;;;;29.20;26.05;;;2.70;97.20;;;;;;1721216;28;20207;-76
2022/12/14 09:23:56;;;;;;;30.20;25.98;;;2.70;97.20;;;;;;1721145;28;20212;-76
2022/12/14 09:24:49;;;;;;;31.85;28.42;;;2.60;97.20;;;;;;1721082;28;20202;-76
2022/12/14 09:25:40;;;;;;;29.90;26.70;;;2.60;97.20;;;;;;1724611;28;20207;-76
2022/12/14 09:26:32;;;;;;;30.07;26.87;;;2.60;97.20;;;;;;1727903;28;20231;-75
2022/12/14 09:27:23;;;;;;;29.80;26.20;;;2.60;97.20;;;;;;1727756;28;20205;-76
2022/12/14 09:28:15;;;;;;;29.93;26.73;;;2.60;97.20;;;;;;1727833;28;20245;-76
2022/12/14 09:29:06;;;;;;;31.05;26.58;;;2.60;97.20;;;;;;1727710;28;20200;-76
2022/12/14 09:29:57;;;;;;;29.80;26.50;;;2.60;97.20;;;;;;1727416;28;20247;-75
2022/12/14 09:30:53;;;;;;;31.23;27.38;;;2.60;97.20;;;;;;1727679;28;20482;-76
2022/12/14 09:31:45;;;;;;;30.60;26.98;;;2.60;97.20;;;;;;1727643;28;20267;-76
2022/12/14 09:32:38;;;;;;;31.00;27.67;;;2.60;97.20;;;;;;1727778;28;20666;-76
2022/12/14 09:33:30;;;;;;;31.05;26.95;;;2.60;97.20;;;;;;1727821;28;20250;-76
2022/12/14 09:34:23;;;;;;;28.85;24.88;;;2.60;97.20;;;;;;1727808;28;20284;-76
2022/12/14 09:35:15;;;;;;;28.45;25.20;;;2.60;97.20;;;;;;1727514;28;20666;-76
2022/12/14 09:36:09;;;;;;;32.33;27.58;;;2.60;97.20;;;;;;1722934;28;20192;-76
2022/12/14 09:37:03;;;;;;;28.70;25.70;;;2.60;97.20;;;;;;1720868;28;20208;-76
2022/12/14 09:37:55;;;;;;;30.83;26.63;;;2.50;97.20;;;;;;1721060;28;20263;-75
2022/12/14 09:38:48;;;;;;;31.60;27.02;;;2.50;97.20;;;;;;1721014;28;20213;-76
2022/12/14 09:39:40;;;;;;;34.05;26.58;;;2.50;97.20;;;;;;1721157;28;20201;-76
2022/12/14 09:40:32;;;;;;;30.25;26.80;;;2.50;97.20;;;;;;1720526;28;20225;-75
2022/12/14 09:41:34;;;;;;;33.25;25.95;;;2.50;97.20;;;;;;1720923;28;20209;-75
2022/12/14 09:42:43;;;;;;;29.35;26.30;;;2.50;97.20;;;;;;1721056;28;20737;-76
2022/12/14 09:43:39;;;;;;;28.00;25.05;;;2.60;97.20;;;;;;1720998;28;20209;-76
2022/12/14 09:44:45;;;;;;;29.38;25.35;;;2.60;97.20;;;;;;1721012;28;20193;-76
2022/12/14 09:45:44;;;;;;;27.65;24.75;;;2.60;97.20;;;;;;1723534;28;20675;-76
2022/12/14 09:46:47;;;;;;;28.50;25.25;;;2.50;97.20;;;;;;1727827;28;20682;-76
2022/12/14 09:47:47;;;;;;;26.15;23.35;;;2.50;97.20;;;;;;1727820;28;20551;-76
2022/12/14 09:48:41;;;;;;;28.90;25.20;;;2.50;97.20;;;;;;1727692;28;20192;-76
2022/12/14 09:49:38;;;;;;;27.67;24.67;;;2.40;97.20;;;;;;1727706;28;20263;-76
2022/12/14 09:50:30;;;;;;;27.52;24.70;;;2.40;97.20;;;;;;1727120;28;20208;-76
2022/12/14 09:51:22;;;;;;;27.65;24.42;;;2.40;97.20;;;;;;1727631;28;20209;-76
2022/12/14 09:52:18;;;;;;;29.20;25.60;;;2.30;97.20;;;;;;1727760;28;20205;-76
2022/12/14 09:53:13;;;;;;;28.45;25.33;;;2.30;97.20;;;;;;1727709;28;20215;-76
2022/12/14 09:54:12;;;;;;;28.30;25.23;;;2.30;97.20;;;;;;1727598;28;20200;-76
2022/12/14 09:55:14;;;;;;;27.85;24.95;;;2.30;97.20;;;;;;1727669;28;20205;-76
2022/12/14 09:56:07;;;;;;;29.90;25.38;;;2.30;97.20;;;;;;1721932;28;20193;-77
2022/12/14 09:57:03;;;;;;;29.20;24.75;;;2.40;97.20;;;;;;1720738;28;20208;-77
2022/12/14 09:57:59;;;;;;;27.55;24.50;;;2.40;97.20;;;;;;1722341;28;20595;-76
2022/12/14 09:58:53;;;;;;;28.05;25.15;;;2.40;97.20;;;;;;1721004;28;20232;-76
2022/12/14 09:59:45;;;;;;;30.25;25.80;;;2.40;97.20;;;;;;1720865;28;20259;-76
2022/12/14 10:00:42;;;;;;;27.90;24.92;;;2.40;97.20;;;;;;1720283;28;20221;-76
2022/12/14 10:01:58;;;;;;;28.05;25.05;;;2.40;97.20;;;;;;1720887;28;20675;-76
2022/12/14 10:03:08;;;;;;;26.38;23.58;;;2.40;97.20;;;;;;1720916;28;20196;-76
2022/12/14 10:04:10;;;;;;;28.45;25.40;;;2.40;97.20;;;;;;1721027;28;20209;-76
2022/12/14 10:05:27;;;;;;;27.67;24.77;;;2.40;97.20;;;;;;1720966;28;20224;-76
2022/12/14 10:06:30;;;;;;;29.77;25.67;;;2.40;97.20;;;;;;1720499;28;20670;-76
2022/12/14 10:07:30;;;;;;;28.48;24.98;;;2.50;97.20;;;;;;1726834;28;20278;-76
2022/12/14 10:08:25;;;;;;;29.83;26.40;;;2.50;97.20;;;;;;1726385;28;20559;-76
2022/12/14 10:09:25;;;;;;;29.77;25.67;;;2.50;97.20;;;;;;1727577;28;20197;-76
2022/12/14 10:10:23;;;;;;;29.45;25.75;;;2.50;97.20;;;;;;1725341;28;20201;-76
2022/12/14 10:11:30;;;;;;;32.05;26.05;;;2.50;97.20;;;;;;1727477;28;20724;-76
2022/12/14 10:12:32;;;;;;;28.75;25.65;;;2.50;97.20;;;;;;1727624;28;20583;-76
2022/12/14 10:13:33;;;;;;;29.38;26.35;;;2.60;97.20;;;;;;1727618;28;20195;-76
2022/12/14 10:14:37;;;;;;;28.63;25.02;;;2.60;97.20;;;;;;1727641;28;20291;-76
2022/12/14 10:15:36;;;;;;;29.73;26.17;;;2.60;97.20;;;;;;1727546;28;20705;-76
2022/12/14 10:16:35;;;;;;;31.35;26.90;;;2.60;97.20;;;;;;1727541;28;20215;-76
2022/12/14 10:17:38;;;;;;;28.67;25.67;;;2.70;97.20;;;;;;1727360;28;20593;-77
2022/12/14 10:18:45;;;;;;;28.80;25.75;;;2.70;97.20;;;;;;1727558;28;20212;-76
2022/12/14 10:19:40;;;;;;;28.15;25.15;;;2.70;97.20;;;;;;1727601;28;20589;-76
2022/12/14 10:20:39;;;;;;;28.17;24.75;;;2.70;97.20;;;;;;1722408;28;20248;-76
2022/12/14 10:21:42;;;;;;;29.17;25.70;;;2.70;97.20;;;;;;1720689;28;20212;-76
2022/12/14 10:22:36;;;;;;;27.77;24.80;;;2.70;97.20;;;;;;1720917;28;20189;-76
2022/12/14 10:23:29;;;;;;;28.25;24.75;;;2.70;97.20;;;;;;1720750;28;20202;-76
2022/12/14 10:24:25;;;;;;;26.75;23.85;;;2.70;97.20;;;;;;1720711;28;20208;-77
2022/12/14 10:25:21;;;;;;;29.67;25.30;;;2.70;97.20;;;;;;1720740;28;20228;-76
2022/12/14 10:26:20;;;;;;;27.27;24.35;;;2.80;97.20;;;;;;1720693;28;20202;-76
2022/12/14 10:27:20;;;;;;;28.83;25.83;;;2.80;97.20;;;;;;1720515;28;20205;-77
2022/12/14 10:28:16;;;;;;;28.42;24.10;;;2.80;97.20;;;;;;1720854;28;20189;-76
2022/12/14 10:29:18;;;;;;;29.10;26.00;;;2.80;97.20;;;;;;1720749;28;20205;-76
2022/12/14 10:30:17;;;;;;;30.02;27.02;;;2.80;97.20;;;;;;1720998;28;20212;-76
2022/12/14 10:31:12;;;;;;;27.65;24.60;;;2.80;97.20;;;;;;1727264;28;20667;-77
2022/12/14 10:32:15;;;;;;;30.13;26.67;;;2.80;97.20;;;;;;1726683;28;20248;-76
2022/12/14 10:33:16;;;;;;;30.05;25.45;;;2.80;97.20;;;;;;1727447;28;20212;-76